Time;durP1;ratioP1;P1;durP2;ratioP2;P2;SDS_P1;SDS_P2;PMS_P1;PMS_P2;Temp;Humidity;BMP_temperature;BMP_pressure;BME280_temperature;BME280_humidity;BME280_pressure;Samples;Min_cycle;Max_cycle;Signal;HPM_P1;HPM_P2
2024/04/15 00:01:46;;;;;;;16.00;10.85;;;;;;;;;;5476988;26;20002;-48
2024/04/15 00:04:13;;;;;;;12.43;10.18;;;;;;;;;;5484823;26;20370;-47
2024/04/15 00:06:39;;;;;;;12.75;11.25;;;;;;;;;;5488486;26;20350;-46
2024/04/15 00:09:05;;;;;;;14.80;10.70;;;;;;;;;;5484677;26;20002;-47
2024/04/15 00:11:32;;;;;;;17.10;10.37;;;;;;;;;;5488116;26;20238;-47
2024/04/15 00:13:58;;;;;;;19.77;11.70;;;;;;;;;;5452367;26;20402;-47
2024/04/15 00:16:28;;;;;;;15.25;11.13;;;;;;;;;;5467801;26;20239;-47
2024/04/15 00:18:54;;;;;;;12.05;10.63;;;;;;;;;;5488843;26;20066;-49
2024/04/15 00:21:20;;;;;;;15.63;11.00;;;;;;;;;;5465418;26;20006;-49
2024/04/15 00:23:46;;;;;;;15.70;11.23;;;;;;;;;;5420384;26;19998;-50
2024/04/15 00:26:12;;;;;;;13.68;11.07;;;;;;;;;;5450057;26;20273;-49
2024/04/15 00:28:39;;;;;;;12.70;10.20;;;;;;;;;;5451973;26;20017;-48
2024/04/15 00:31:05;;;;;;;20.37;11.27;;;;;;;;;;5467118;26;20236;-47
2024/04/15 00:33:32;;;;;;;15.27;11.38;;;;;;;;;;5453800;26;19999;-47
2024/04/15 00:35:58;;;;;;;13.57;11.60;;;;;;;;;;5451944;26;19998;-46
2024/04/15 00:38:24;;;;;;;15.30;11.40;;;;;;;;;;5451687;26;20240;-49
2024/04/15 00:40:50;;;;;;;13.67;12.23;;;;;;;;;;5464867;26;19998;-47
2024/04/15 00:43:16;;;;;;;17.17;11.53;;;;;;;;;;5487913;26;20742;-47
2024/04/15 00:45:43;;;;;;;16.92;11.65;;;;;;;;;;5476493;26;20071;-51
2024/04/15 00:48:12;;;;;;;15.40;12.73;;;;;;;;;;5453656;26;20007;-50
2024/04/15 00:50:40;;;;;;;15.07;11.93;;;;;;;;;;5465189;26;20438;-46
2024/04/15 00:53:07;;;;;;;16.70;11.75;;;;;;;;;;5451681;26;20025;-46
2024/04/15 00:55:35;;;;;;;12.88;11.48;;;;;;;;;;5449901;26;20368;-47
2024/04/15 00:58:02;;;;;;;13.38;11.82;;;;;;;;;;5457376;26;20518;-51
2024/04/15 01:00:28;;;;;;;15.02;12.25;;;;;;;;;;5419296;26;20399;-47
2024/04/15 01:02:55;;;;;;;19.05;11.95;;;;;;;;;;5472330;26;20022;-47
2024/04/15 01:05:21;;;;;;;15.30;11.93;;;;;;;;;;5484725;26;20365;-53
2024/04/15 01:07:47;;;;;;;16.47;10.53;;;;;;;;;;5484786;26;20006;-49
2024/04/15 01:10:13;;;;;;;20.70;12.47;;;;;;;;;;5481277;26;20231;-49
2024/04/15 01:12:41;;;;;;;14.90;11.73;;;;;;;;;;5451978;26;20455;-48
2024/04/15 01:15:07;;;;;;;18.35;12.73;;;;;;;;;;5472223;26;20027;-46
2024/04/15 01:17:34;;;;;;;18.45;10.65;;;;;;;;;;5450966;26;19999;-49
2024/04/15 01:20:00;;;;;;;17.35;12.32;;;;;;;;;;5468623;26;20010;-46
2024/04/15 01:22:33;;;;;;;15.38;10.63;;;;;;;;;;5487162;26;20004;-47
2024/04/15 01:25:00;;;;;;;13.48;11.55;;;;;;;;;;5485965;26;19990;-50
2024/04/15 01:27:27;;;;;;;20.27;12.07;;;;;;;;;;5472823;26;20007;-47
2024/04/15 01:29:53;;;;;;;14.65;11.38;;;;;;;;;;5466907;26;20067;-47
2024/04/15 01:32:19;;;;;;;13.83;11.20;;;;;;;;;;5455275;26;20633;-47
2024/04/15 01:34:46;;;;;;;17.07;12.70;;;;;;;;;;5484785;26;20462;-51
2024/04/15 01:37:12;;;;;;;16.17;12.13;;;;;;;;;;5487772;26;20758;-48
2024/04/15 01:39:38;;;;;;;17.57;12.40;;;;;;;;;;5480819;26;20011;-55
2024/04/15 01:42:04;;;;;;;15.07;12.17;;;;;;;;;;5454380;26;20295;-47
2024/04/15 01:44:31;;;;;;;20.70;13.27;;;;;;;;;;5452355;26;19998;-47
2024/04/15 01:46:57;;;;;;;16.92;13.02;;;;;;;;;;5450012;26;20468;-46
2024/04/15 01:49:23;;;;;;;24.23;13.50;;;;;;;;;;5473037;26;20462;-47
2024/04/15 01:51:50;;;;;;;17.40;12.67;;;;;;;;;;5480293;26;20337;-49
2024/04/15 01:54:16;;;;;;;14.20;12.07;;;;;;;;;;5490226;26;19994;-52
2024/04/15 01:56:42;;;;;;;14.63;12.85;;;;;;;;;;5490193;26;19998;-49
2024/04/15 01:59:08;;;;;;;16.80;12.43;;;;;;;;;;5490298;26;20010;-47
2024/04/15 02:01:35;;;;;;;14.45;12.73;;;;;;;;;;5465346;26;20003;-47
2024/04/15 02:04:02;;;;;;;18.45;13.85;;;;;;;;;;5453762;26;20006;-46
2024/04/15 02:06:28;;;;;;;21.20;13.32;;;;;;;;;;5439743;26;20051;-46
2024/04/15 02:08:54;;;;;;;25.43;12.33;;;;;;;;;;5488032;26;20378;-47
2024/04/15 02:11:20;;;;;;;15.60;13.27;;;;;;;;;;5456858;26;20288;-53
2024/04/15 02:13:46;;;;;;;21.07;13.37;;;;;;;;;;5421752;26;20010;-50
2024/04/15 02:16:13;;;;;;;18.73;11.83;;;;;;;;;;5456394;26;20010;-50
2024/04/15 02:18:39;;;;;;;15.97;13.37;;;;;;;;;;5454100;26;19999;-49
2024/04/15 02:21:05;;;;;;;16.10;12.73;;;;;;;;;;5455915;26;20328;-48
2024/04/15 02:23:31;;;;;;;15.87;12.50;;;;;;;;;;5453362;26;20108;-47
2024/04/15 02:25:57;;;;;;;18.43;12.83;;;;;;;;;;5463522;26;20012;-47
2024/04/15 02:28:23;;;;;;;19.10;13.23;;;;;;;;;;5487979;26;19994;-46
2024/04/15 02:30:50;;;;;;;22.97;12.60;;;;;;;;;;5428094;26;20280;-46
2024/04/15 02:33:16;;;;;;;17.93;12.80;;;;;;;;;;5460616;26;20050;-47
2024/04/15 02:35:42;;;;;;;20.47;12.77;;;;;;;;;;5486769;26;20410;-47
2024/04/15 02:38:08;;;;;;;15.53;11.57;;;;;;;;;;5486280;26;20002;-46
2024/04/15 02:40:35;;;;;;;17.63;12.57;;;;;;;;;;5488126;26;20227;-47
2024/04/15 02:43:01;;;;;;;13.90;12.43;;;;;;;;;;5489933;26;20009;-46
2024/04/15 02:45:27;;;;;;;18.42;13.23;;;;;;;;;;5484507;26;20751;-50
2024/04/15 02:47:53;;;;;;;15.77;11.67;;;;;;;;;;5460514;26;20043;-50
2024/04/15 02:50:19;;;;;;;15.20;12.23;;;;;;;;;;5455440;26;20002;-47
2024/04/15 02:52:46;;;;;;;14.77;11.67;;;;;;;;;;5471269;26;20039;-47
2024/04/15 02:55:12;;;;;;;13.37;11.77;;;;;;;;;;5477921;26;20076;-47
2024/04/15 02:57:38;;;;;;;16.17;11.73;;;;;;;;;;5489876;26;20268;-46
2024/04/15 03:00:05;;;;;;;20.30;10.67;;;;;;;;;;5485493;26;20454;-47
2024/04/15 03:02:31;;;;;;;15.00;12.23;;;;;;;;;;5445068;26;20002;-48
2024/04/15 03:04:57;;;;;;;15.03;11.23;;;;;;;;;;5489147;26;20014;-51
2024/04/15 03:07:23;;;;;;;11.40;10.17;;;;;;;;;;5461496;26;20052;-51
2024/04/15 03:09:57;;;;;;;13.13;10.80;;;;;;;;;;5456292;26;20005;-48
2024/04/15 03:12:23;;;;;;;11.85;10.40;;;;;;;;;;5481553;26;20328;-46
2024/04/15 03:14:49;;;;;;;13.17;9.97;;;;;;;;;;5468998;26;20014;-47
2024/04/15 03:17:16;;;;;;;18.37;9.93;;;;;;;;;;5458992;26;20276;-51
2024/04/15 03:19:42;;;;;;;17.20;10.00;;;;;;;;;;5426771;26;19998;-51
2024/04/15 03:22:08;;;;;;;15.15;8.80;;;;;;;;;;5489072;26;20004;-51
2024/04/15 03:24:35;;;;;;;12.30;9.93;;;;;;;;;;5489086;26;20009;-48
2024/04/15 03:27:02;;;;;;;15.90;10.52;;;;;;;;;;5486550;26;20051;-51
2024/04/15 03:29:28;;;;;;;14.73;9.73;;;;;;;;;;5487423;26;20358;-48
2024/04/15 03:31:54;;;;;;;12.33;10.00;;;;;;;;;;5463253;26;20044;-48
2024/04/15 03:34:21;;;;;;;16.93;10.97;;;;;;;;;;5450699;26;20642;-48
2024/04/15 03:36:47;;;;;;;15.63;10.33;;;;;;;;;;5489130;26;20005;-49
2024/04/15 03:39:13;;;;;;;24.40;10.93;;;;;;;;;;5489072;26;19998;-48
2024/04/15 03:41:39;;;;;;;11.93;10.55;;;;;;;;;;5485842;26;20010;-48
2024/04/15 03:44:05;;;;;;;19.80;11.53;;;;;;;;;;5482591;26;20001;-47
2024/04/15 03:46:32;;;;;;;14.40;11.02;;;;;;;;;;5477759;26;20017;-51
2024/04/15 03:48:59;;;;;;;20.73;10.63;;;;;;;;;;5485958;26;19994;-48
2024/04/15 03:51:25;;;;;;;16.57;11.57;;;;;;;;;;5476903;26;20019;-48
2024/04/15 03:53:51;;;;;;;20.73;11.03;;;;;;;;;;5483704;26;20077;-52
2024/04/15 03:56:17;;;;;;;15.17;10.17;;;;;;;;;;5458679;26;20039;-52
2024/04/15 03:58:43;;;;;;;13.80;11.27;;;;;;;;;;5451887;26;20126;-53
2024/04/15 04:01:09;;;;;;;15.80;10.97;;;;;;;;;;5465059;26;20017;-48
2024/04/15 04:03:36;;;;;;;14.90;10.93;;;;;;;;;;5489433;26;20010;-47
2024/04/15 04:06:02;;;;;;;14.83;11.37;;;;;;;;;;5484411;26;20374;-48
2024/04/15 04:08:29;;;;;;;17.60;12.18;;;;;;;;;;5484725;26;20420;-47
2024/04/15 04:10:56;;;;;;;13.98;10.73;;;;;;;;;;5484501;26;20338;-48
2024/04/15 04:13:22;;;;;;;16.98;10.93;;;;;;;;;;5484928;26;20006;-48
2024/04/15 04:15:48;;;;;;;16.60;11.37;;;;;;;;;;5485533;26;19998;-48
2024/04/15 04:18:14;;;;;;;18.33;12.97;;;;;;;;;;5487005;26;19998;-47
2024/04/15 04:20:40;;;;;;;20.60;12.85;;;;;;;;;;5485418;26;19994;-47
2024/04/15 04:23:07;;;;;;;13.30;11.00;;;;;;;;;;5488588;26;19998;-52
2024/04/15 04:25:33;;;;;;;14.18;11.25;;;;;;;;;;5486889;26;20002;-50
2024/04/15 04:27:59;;;;;;;17.00;12.20;;;;;;;;;;5488720;26;20013;-50
2024/04/15 04:30:26;;;;;;;13.95;11.50;;;;;;;;;;5487613;26;20587;-49
2024/04/15 04:32:52;;;;;;;22.92;13.00;;;;;;;;;;5488503;26;20066;-47
2024/04/15 04:35:18;;;;;;;14.57;12.73;;;;;;;;;;5488419;26;20008;-47
2024/04/15 04:37:45;;;;;;;19.43;12.57;;;;;;;;;;5486477;26;20084;-47
2024/04/15 04:40:11;;;;;;;16.20;13.15;;;;;;;;;;5487797;26;19990;-47
2024/04/15 04:42:37;;;;;;;18.88;11.95;;;;;;;;;;5488245;26;20030;-50
2024/04/15 04:45:03;;;;;;;19.33;11.73;;;;;;;;;;5488204;26;20031;-48
2024/04/15 04:47:31;;;;;;;14.65;12.52;;;;;;;;;;5487914;26;20071;-50
2024/04/15 04:49:57;;;;;;;14.73;11.35;;;;;;;;;;5486063;26;19998;-51
2024/04/15 04:52:24;;;;;;;18.97;12.43;;;;;;;;;;5488100;26;20100;-48
2024/04/15 04:54:50;;;;;;;16.55;12.38;;;;;;;;;;5485994;26;20239;-50
2024/04/15 04:57:17;;;;;;;20.73;13.25;;;;;;;;;;5455868;26;20063;-48
2024/04/15 04:59:43;;;;;;;19.58;14.32;;;;;;;;;;5487631;26;20070;-52
2024/04/15 05:02:11;;;;;;;17.57;13.63;;;;;;;;;;5486164;26;20013;-50
2024/04/15 05:04:37;;;;;;;19.48;12.75;;;;;;;;;;5485763;26;19994;-51
2024/04/15 05:07:03;;;;;;;25.43;14.27;;;;;;;;;;5487498;26;20009;-51
2024/04/15 05:09:29;;;;;;;17.83;13.07;;;;;;;;;;5487776;26;20377;-49
2024/04/15 05:11:55;;;;;;;19.20;12.83;;;;;;;;;;5487139;26;20350;-48
2024/04/15 05:14:22;;;;;;;14.55;12.38;;;;;;;;;;5487441;26;20013;-49
2024/04/15 05:16:48;;;;;;;26.45;13.38;;;;;;;;;;5455576;26;20010;-48
2024/04/15 05:19:14;;;;;;;23.38;13.25;;;;;;;;;;5486045;26;20009;-48
2024/04/15 05:21:40;;;;;;;20.63;12.10;;;;;;;;;;5485176;26;19994;-46
2024/04/15 05:24:07;;;;;;;16.27;13.23;;;;;;;;;;5485283;26;19990;-49
2024/04/15 05:26:33;;;;;;;22.50;11.60;;;;;;;;;;5487207;26;20025;-48
2024/04/15 05:28:59;;;;;;;16.67;11.90;;;;;;;;;;5487484;26;20036;-49
2024/04/15 05:31:26;;;;;;;21.27;12.10;;;;;;;;;;5455123;26;20353;-48
2024/04/15 05:33:52;;;;;;;14.60;9.75;;;;;;;;;;5485271;26;19990;-50
2024/04/15 05:36:18;;;;;;;13.73;11.03;;;;;;;;;;5516254;26;20462;-53
2024/04/15 05:38:44;;;;;;;14.48;9.77;;;;;;;;;;5487152;26;20775;-47
2024/04/15 05:41:10;;;;;;;14.90;10.53;;;;;;;;;;5486998;26;20001;-49
2024/04/15 05:43:37;;;;;;;16.30;9.68;;;;;;;;;;5487127;26;20259;-50
2024/04/15 05:46:04;;;;;;;14.00;9.17;;;;;;;;;;5485371;26;20342;-49
2024/04/15 05:48:31;;;;;;;18.88;9.30;;;;;;;;;;5485007;26;20005;-46
2024/04/15 05:50:57;;;;;;;16.00;10.03;;;;;;;;;;5486644;26;20030;-48
2024/04/15 05:53:23;;;;;;;13.82;9.98;;;;;;;;;;5486742;26;20762;-53
2024/04/15 05:55:49;;;;;;;14.20;9.07;;;;;;;;;;5486702;26;19994;-46
2024/04/15 05:58:15;;;;;;;13.43;10.17;;;;;;;;;;5515603;26;19994;-47
2024/04/15 06:00:41;;;;;;;15.87;9.93;;;;;;;;;;5484760;26;20005;-49
2024/04/15 06:03:08;;;;;;;15.57;10.45;;;;;;;;;;5484777;26;20043;-48
2024/04/15 06:05:34;;;;;;;15.07;10.63;;;;;;;;;;5484914;26;20066;-48
2024/04/15 06:08:00;;;;;;;18.80;10.85;;;;;;;;;;5486622;26;19994;-48
2024/04/15 06:10:27;;;;;;;17.92;9.70;;;;;;;;;;5486131;26;20006;-50
2024/04/15 06:12:53;;;;;;;15.47;10.60;;;;;;;;;;5487915;26;20005;-48
2024/04/15 06:15:19;;;;;;;18.43;9.73;;;;;;;;;;5490366;26;20723;-50
2024/04/15 06:17:46;;;;;;;13.20;9.20;;;;;;;;;;5490237;26;20002;-47
2024/04/15 06:20:12;;;;;;;;;;;;;;;;;;5488852;26;19994;-48
2024/04/15 06:22:38;;;;;;;15.98;9.88;;;;;;;;;;5490577;26;20341;-50
2024/04/15 06:25:05;;;;;;;16.43;9.67;;;;;;;;;;5490446;26;20025;-52
2024/04/15 06:27:31;;;;;;;14.45;10.02;;;;;;;;;;5519513;26;19994;-49
2024/04/15 06:29:57;;;;;;;15.90;10.27;;;;;;;;;;5490075;26;20453;-50
2024/04/15 06:32:24;;;;;;;17.90;10.10;;;;;;;;;;5488125;26;20019;-50
2024/04/15 06:34:50;;;;;;;13.60;9.75;;;;;;;;;;5489857;26;20486;-48
2024/04/15 06:37:16;;;;;;;13.40;9.10;;;;;;;;;;5488366;26;20469;-47
2024/04/15 06:39:43;;;;;;;15.20;10.23;;;;;;;;;;5489830;26;20030;-46
2024/04/15 06:42:09;;;;;;;;;;;;;;;;;;5488954;26;20030;-48
2024/04/15 06:44:35;;;;;;;13.00;8.82;;;;;;;;;;5487955;26;19924;-49
2024/04/15 06:47:01;;;;;;;13.33;9.33;;;;;;;;;;5490048;26;19998;-47
2024/04/15 06:49:28;;;;;;;14.03;8.50;;;;;;;;;;5489907;26;20004;-48
2024/04/15 06:51:54;;;;;;;16.00;9.17;;;;;;;;;;5518563;26;20001;-50
2024/04/15 06:54:20;;;;;;;17.42;8.68;;;;;;;;;;5490002;26;20066;-48
2024/04/15 06:56:47;;;;;;;15.77;10.57;;;;;;;;;;5489696;26;20413;-48
2024/04/15 06:59:13;;;;;;;16.73;10.03;;;;;;;;;;5489624;26;20009;-50
2024/04/15 07:01:39;;;;;;;16.77;9.05;;;;;;;;;;5487725;26;20029;-51
2024/04/15 07:04:06;;;;;;;15.30;8.07;;;;;;;;;;5489677;26;19990;-49
2024/04/15 07:06:32;;;;;;;12.07;8.10;;;;;;;;;;5489578;26;20286;-51
2024/04/15 07:08:58;;;;;;;16.77;9.23;;;;;;;;;;5489635;26;19998;-51
2024/04/15 07:11:24;;;;;;;12.43;8.53;;;;;;;;;;5489095;26;20002;-48
2024/04/15 07:13:50;;;;;;;13.13;7.57;;;;;;;;;;5489591;26;20005;-49
2024/04/15 07:16:17;;;;;;;15.98;8.93;;;;;;;;;;5489335;26;20306;-49
2024/04/15 07:18:46;;;;;;;15.10;9.25;;;;;;;;;;5489462;26;20006;-51
2024/04/15 07:21:12;;;;;;;17.87;8.13;;;;;;;;;;5487240;26;20519;-49
2024/04/15 07:23:39;;;;;;;18.98;8.05;;;;;;;;;;5487595;26;20006;-49
2024/04/15 07:26:05;;;;;;;15.80;8.80;;;;;;;;;;5518617;26;20002;-50
2024/04/15 07:28:31;;;;;;;12.23;7.77;;;;;;;;;;5489091;26;20026;-55
2024/04/15 07:30:57;;;;;;;11.27;7.63;;;;;;;;;;5518137;26;20006;-52
2024/04/15 07:33:25;;;;;;;13.20;7.05;;;;;;;;;;5488845;26;20227;-50
2024/04/15 07:36:01;;;;;;;18.83;7.63;;;;;;;;;;5489146;26;20022;-52
2024/04/15 07:38:27;;;;;;;10.05;6.75;;;;;;;;;;5489004;26;19998;-54
2024/04/15 07:40:54;;;;;;;13.27;7.20;;;;;;;;;;5488685;26;20360;-53
2024/04/15 07:43:20;;;;;;;7.28;5.65;;;;;;;;;;5488632;26;19997;-50
2024/04/15 07:45:46;;;;;;;13.80;7.40;;;;;;;;;;5518218;26;19994;-51
2024/04/15 07:48:13;;;;;;;17.97;7.80;;;;;;;;;;5489072;26;20070;-54
2024/04/15 07:50:41;;;;;;;13.45;7.40;;;;;;;;;;5488731;26;20220;-54
2024/04/15 07:53:07;;;;;;;;;;;;;;;;;;5487501;26;20002;-53
2024/04/15 07:55:33;;;;;;;11.50;6.85;;;;;;;;;;5487008;26;19924;-54
2024/04/15 07:57:59;;;;;;;11.37;6.33;;;;;;;;;;5486843;26;20005;-49
2024/04/15 08:00:25;;;;;;;13.90;6.70;;;;;;;;;;5488623;26;20731;-50
2024/04/15 08:02:51;;;;;;;17.20;7.27;;;;;;;;;;5488640;26;20005;-49
2024/04/15 08:05:18;;;;;;;12.40;6.27;;;;;;;;;;5488866;26;19994;-49
2024/04/15 08:07:44;;;;;;;10.35;5.40;;;;;;;;;;5488889;26;20456;-49
2024/04/15 08:10:10;;;;;;;12.30;6.70;;;;;;;;;;5486903;26;20006;-50
2024/04/15 08:12:37;;;;;;;13.55;6.28;;;;;;;;;;5517705;26;20006;-50
2024/04/15 08:15:03;;;;;;;11.13;6.13;;;;;;;;;;5488387;26;20005;-51
2024/04/15 08:17:29;;;;;;;10.35;5.65;;;;;;;;;;5486887;26;20227;-53
2024/04/15 08:19:55;;;;;;;12.03;6.37;;;;;;;;;;5488201;26;20469;-51
2024/04/15 08:22:22;;;;;;;16.90;6.83;;;;;;;;;;5488750;26;20731;-51
2024/04/15 08:24:49;;;;;;;14.40;6.97;;;;;;;;;;5517309;26;20268;-54
2024/04/15 08:27:20;;;;;;;15.48;6.13;;;;;;;;;;5488152;26;19998;-51
2024/04/15 08:29:46;;;;;;;9.50;6.20;;;;;;;;;;5488524;26;20020;-51
2024/04/15 08:32:13;;;;;;;;;;;;;;;;;;5489211;26;20006;-52
2024/04/15 08:34:40;;;;;;;7.80;6.25;;;;;;;;;;5486277;26;19924;-53
2024/04/15 08:37:07;;;;;;;12.75;6.25;;;;;;;;;;5486736;26;19994;-53
2024/04/15 08:39:35;;;;;;;11.65;6.22;;;;;;;;;;5487965;26;19998;-52
2024/04/15 08:42:06;;;;;;;15.65;6.60;;;;;;;;;;5488114;26;20018;-50
2024/04/15 08:44:33;;;;;;;7.97;6.00;;;;;;;;;;5487920;26;20080;-50
2024/04/15 08:47:02;;;;;;;15.07;6.00;;;;;;;;;;5486093;26;20416;-49
2024/04/15 08:49:28;;;;;;;12.90;7.05;;;;;;;;;;5517158;26;19998;-49
2024/04/15 08:51:57;;;;;;;9.77;5.07;;;;;;;;;;5487691;26;20005;-49
2024/04/15 08:54:23;;;;;;;12.38;7.10;;;;;;;;;;5486200;26;20004;-51
2024/04/15 08:56:51;;;;;;;13.93;7.37;;;;;;;;;;5486251;26;20001;-52
2024/04/15 08:59:20;;;;;;;12.95;7.32;;;;;;;;;;5488007;26;20005;-50
2024/04/15 09:01:47;;;;;;;18.67;6.95;;;;;;;;;;5487383;26;20377;-52
2024/04/15 09:04:13;;;;;;;19.05;6.78;;;;;;;;;;5487898;26;20005;-54
2024/04/15 09:06:40;;;;;;;;;;;;;;;;;;5488114;26;20455;-50
2024/04/15 09:09:06;;;;;;;10.00;6.28;;;;;;;;;;5455635;26;19931;-50
2024/04/15 09:11:35;;;;;;;25.90;8.03;;;;;;;;;;5487093;26;20044;-52
2024/04/15 09:14:03;;;;;;;14.65;6.75;;;;;;;;;;5487760;26;20013;-53
2024/04/15 09:16:29;;;;;;;19.63;6.50;;;;;;;;;;5487689;26;20002;-53
2024/04/15 09:18:55;;;;;;;7.67;5.23;;;;;;;;;;5517113;26;20145;-50
2024/04/15 09:21:21;;;;;;;19.70;5.47;;;;;;;;;;5485332;26;20026;-51
2024/04/15 09:23:48;;;;;;;11.07;6.28;;;;;;;;;;5487186;26;19991;-50
2024/04/15 09:26:14;;;;;;;15.63;6.18;;;;;;;;;;5516647;26;19990;-52
2024/04/15 09:28:40;;;;;;;10.73;6.88;;;;;;;;;;5487251;26;20005;-50
2024/04/15 09:31:07;;;;;;;19.60;7.83;;;;;;;;;;5486855;26;19995;-49
2024/04/15 09:33:35;;;;;;;10.52;6.28;;;;;;;;;;5487385;26;20358;-50
2024/04/15 09:36:01;;;;;;;19.05;7.32;;;;;;;;;;5486984;26;20005;-54
2024/04/15 09:38:28;;;;;;;13.52;7.47;;;;;;;;;;5515978;26;20029;-52
2024/04/15 09:40:55;;;;;;;11.32;7.38;;;;;;;;;;5486667;26;20525;-49
2024/04/15 09:43:23;;;;;;;8.77;6.50;;;;;;;;;;5486900;26;19995;-53
2024/04/15 09:45:49;;;;;;;15.60;7.70;;;;;;;;;;5487371;26;20227;-52
2024/04/15 09:48:22;;;;;;;12.80;6.75;;;;;;;;;;5488786;26;20005;-53
2024/04/15 09:50:55;;;;;;;13.57;7.90;;;;;;;;;;5490462;26;19994;-51
2024/04/15 09:53:36;;;;;;;15.88;7.25;;;;;;;;;;5490653;26;20036;-51
2024/04/15 09:56:04;;;;;;;17.08;7.15;;;;;;;;;;5519754;26;20005;-51
2024/04/15 09:58:32;;;;;;;13.65;7.88;;;;;;;;;;5490707;26;20466;-52
2024/04/15 10:00:59;;;;;;;11.30;7.00;;;;;;;;;;5489962;26;20071;-49
2024/04/15 10:03:30;;;;;;;12.07;7.28;;;;;;;;;;5488331;26;20363;-56
2024/04/15 10:05:59;;;;;;;13.40;6.47;;;;;;;;;;5519570;26;20038;-51
2024/04/15 10:08:27;;;;;;;15.45;6.93;;;;;;;;;;5518785;26;20017;-56
2024/04/15 10:10:53;;;;;;;13.32;7.53;;;;;;;;;;5518949;26;20530;-51
2024/04/15 10:13:20;;;;;;;15.88;7.93;;;;;;;;;;5490130;26;20005;-55
2024/04/15 10:15:46;;;;;;;12.50;8.25;;;;;;;;;;5468477;26;20007;-48
2024/04/15 10:18:13;;;;;;;15.00;7.35;;;;;;;;;;5451121;26;20068;-51
2024/04/15 10:20:40;;;;;;;14.43;7.75;;;;;;;;;;5470648;26;19999;-50
2024/04/15 10:23:06;;;;;;;;;;;;;;;;;;5450311;26;19999;-52
2024/04/15 10:25:33;;;;;;;16.17;8.52;;;;;;;;;;5452536;26;19993;-49
2024/04/15 10:27:59;;;;;;;10.07;7.07;;;;;;;;;;5451905;26;19998;-54
2024/04/15 10:30:29;;;;;;;13.93;7.50;;;;;;;;;;5451756;26;20002;-50
2024/04/15 10:32:58;;;;;;;8.40;6.88;;;;;;;;;;5447534;26;20023;-51
2024/04/15 10:35:25;;;;;;;20.88;6.85;;;;;;;;;;5448046;26;20009;-50
2024/04/15 10:37:52;;;;;;;13.80;7.10;;;;;;;;;;5453817;26;20010;-55
2024/04/15 10:40:28;;;;;;;15.20;6.70;;;;;;;;;;5487811;26;20366;-52
2024/04/15 10:42:55;;;;;;;21.02;8.85;;;;;;;;;;5473008;26;20028;-53
2024/04/15 10:45:21;;;;;;;12.80;8.02;;;;;;;;;;5514921;21;20006;-48
2024/04/15 10:47:47;;;;;;;12.27;7.25;;;;;;;;;;5490459;26;20446;-48
2024/04/15 10:50:13;;;;;;;14.60;7.43;;;;;;;;;;5481740;26;19999;-48
2024/04/15 10:52:39;;;;;;;13.82;8.52;;;;;;;;;;5472398;26;20010;-49
2024/04/15 10:55:06;;;;;;;15.13;8.85;;;;;;;;;;5485728;26;20006;-49
2024/04/15 10:57:32;;;;;;;16.75;9.52;;;;;;;;;;5455866;26;20009;-49
2024/04/15 10:59:59;;;;;;;27.02;9.10;;;;;;;;;;5455195;26;20032;-48
2024/04/15 11:02:25;;;;;;;;;;;;;;;;;;5470309;26;20009;-49
2024/04/15 11:04:51;;;;;;;13.65;8.65;;;;;;;;;;5477689;26;19996;-48
2024/04/15 11:07:18;;;;;;;12.68;7.20;;;;;;;;;;5469213;26;20002;-49
2024/04/15 11:09:44;;;;;;;17.92;8.90;;;;;;;;;;5478499;26;20356;-49
2024/04/15 11:12:11;;;;;;;15.18;8.18;;;;;;;;;;5482252;26;19998;-50
2024/04/15 11:14:37;;;;;;;10.98;8.00;;;;;;;;;;5453278;26;20014;-48
2024/04/15 11:17:06;;;;;;;15.10;8.10;;;;;;;;;;5454609;26;20021;-49
2024/04/15 11:19:32;;;;;;;10.45;7.00;;;;;;;;;;5452751;26;20051;-52
2024/04/15 11:22:03;;;;;;;10.93;7.18;;;;;;;;;;5460805;26;20038;-49
2024/04/15 11:24:30;;;;;;;13.20;7.22;;;;;;;;;;5449687;26;20011;-48
2024/04/15 11:26:56;;;;;;;9.40;6.63;;;;;;;;;;5446673;26;20031;-48
2024/04/15 11:29:22;;;;;;;17.25;7.40;;;;;;;;;;5448035;26;20474;-48
2024/04/15 11:31:48;;;;;;;34.97;7.70;;;;;;;;;;5453157;26;19999;-49
2024/04/15 11:34:16;;;;;;;13.05;7.15;;;;;;;;;;5475571;26;19994;-49
2024/04/15 11:36:43;;;;;;;11.43;6.97;;;;;;;;;;5484204;26;20017;-49
2024/04/15 11:39:10;;;;;;;14.75;6.47;;;;;;;;;;5487183;26;20018;-48
2024/04/15 11:41:36;;;;;;;14.60;6.53;;;;;;;;;;5485979;26;20010;-49
2024/04/15 11:44:02;;;;;;;17.17;7.95;;;;;;;;;;5466895;26;20468;-50
2024/04/15 11:46:30;;;;;;;16.67;9.40;;;;;;;;;;5471425;26;20434;-48
2024/04/15 11:48:57;;;;;;;10.40;6.22;;;;;;;;;;5516096;26;19995;-49
2024/04/15 11:51:23;;;;;;;15.95;8.73;;;;;;;;;;5478347;26;20350;-48
2024/04/15 11:53:51;;;;;;;14.32;8.20;;;;;;;;;;5468919;26;20010;-49
2024/04/15 11:56:18;;;;;;;12.68;7.65;;;;;;;;;;5448894;26;20600;-48
2024/04/15 11:58:46;;;;;;;15.73;7.85;;;;;;;;;;5450658;26;20005;-49
2024/04/15 12:01:12;;;;;;;21.33;7.47;;;;;;;;;;5455815;26;20018;-50
2024/04/15 12:03:39;;;;;;;16.27;7.75;;;;;;;;;;5452663;26;20013;-48
2024/04/15 12:06:05;;;;;;;13.98;7.13;;;;;;;;;;5450828;26;19998;-48
2024/04/15 12:08:34;;;;;;;15.80;7.43;;;;;;;;;;5449954;26;20458;-50
2024/04/15 12:11:00;;;;;;;11.02;6.28;;;;;;;;;;5484726;26;20013;-50
2024/04/15 12:13:27;;;;;;;10.75;6.97;;;;;;;;;;5480966;26;20087;-51
2024/04/15 12:15:53;;;;;;;18.10;8.23;;;;;;;;;;5472487;26;20017;-49
2024/04/15 12:18:19;;;;;;;13.70;7.43;;;;;;;;;;5450269;26;20331;-49
2024/04/15 12:20:45;;;;;;;12.85;6.70;;;;;;;;;;5450384;26;20067;-49
2024/04/15 12:23:11;;;;;;;17.15;7.18;;;;;;;;;;5455336;26;20002;-48
2024/04/15 12:25:37;;;;;;;23.98;7.55;;;;;;;;;;5486610;26;20028;-49
2024/04/15 12:28:04;;;;;;;9.85;6.22;;;;;;;;;;5482397;26;20002;-49
2024/04/15 12:30:30;;;;;;;10.93;6.78;;;;;;;;;;5455894;26;20018;-49
2024/04/15 12:32:58;;;;;;;15.48;7.15;;;;;;;;;;5464416;26;20443;-50
2024/04/15 12:35:24;;;;;;;10.55;6.93;;;;;;;;;;5475221;26;19999;-48
2024/04/15 12:37:51;;;;;;;14.02;6.75;;;;;;;;;;5457079;26;20138;-48
2024/04/15 12:40:17;;;;;;;12.07;6.93;;;;;;;;;;5487524;26;19998;-48
2024/04/15 12:42:43;;;;;;;15.18;7.30;;;;;;;;;;5467792;26;20011;-49
2024/04/15 12:45:09;;;;;;;12.63;7.47;;;;;;;;;;5449469;26;20002;-48
2024/04/15 12:47:36;;;;;;;15.07;7.65;;;;;;;;;;5451499;26;20006;-48
2024/04/15 12:50:03;;;;;;;10.07;6.95;;;;;;;;;;5421459;26;20037;-49
2024/04/15 12:52:31;;;;;;;13.27;7.75;;;;;;;;;;5414398;26;20391;-48
2024/04/15 12:54:58;;;;;;;9.95;6.30;;;;;;;;;;5415890;26;20053;-49
2024/04/15 12:57:24;;;;;;;10.52;6.55;;;;;;;;;;5415500;26;20010;-48
2024/04/15 12:59:51;;;;;;;14.75;7.03;;;;;;;;;;5439016;26;20535;-50
2024/04/15 13:02:17;;;;;;;17.17;6.60;;;;;;;;;;5447412;26;20014;-50
2024/04/15 13:04:43;;;;;;;17.25;7.65;;;;;;;;;;5448327;26;20005;-49
2024/04/15 13:07:09;;;;;;;16.13;8.32;;;;;;;;;;5458136;26;20022;-49
2024/04/15 13:09:36;;;;;;;15.80;7.22;;;;;;;;;;5449112;26;20002;-48
2024/04/15 13:12:03;;;;;;;16.98;8.70;;;;;;;;;;5446148;26;20463;-48
2024/04/15 13:14:30;;;;;;;14.23;7.20;;;;;;;;;;5448507;26;20392;-49
2024/04/15 13:16:56;;;;;;;16.67;7.82;;;;;;;;;;5449808;26;20010;-49
2024/04/15 13:19:22;;;;;;;12.25;6.70;;;;;;;;;;5450703;26;20010;-48
2024/04/15 13:21:48;;;;;;;11.65;5.97;;;;;;;;;;5465498;26;20382;-48
2024/04/15 13:24:15;;;;;;;9.13;5.80;;;;;;;;;;5461175;26;20011;-55
2024/04/15 13:26:41;;;;;;;;;;;;;;;;;;5455044;26;20101;-52
2024/04/15 13:29:08;;;;;;;50.60;11.25;;;;;;;;;;5457067;26;19924;-54
2024/04/15 13:31:34;;;;;;;13.88;6.53;;;;;;;;;;5476208;26;20017;-54
2024/04/15 13:34:00;;;;;;;14.18;6.90;;;;;;;;;;5462050;26;20467;-56
2024/04/15 13:36:26;;;;;;;8.80;5.82;;;;;;;;;;5454285;26;20007;-50
2024/04/15 13:38:52;;;;;;;18.38;7.00;;;;;;;;;;5467002;26;20505;-51
2024/04/15 13:41:19;;;;;;;14.27;7.22;;;;;;;;;;5487218;26;20017;-54
2024/04/15 13:43:45;;;;;;;17.63;5.82;;;;;;;;;;5490378;26;20550;-52
2024/04/15 13:46:13;;;;;;;17.30;6.90;;;;;;;;;;5490714;26;20351;-51
2024/04/15 13:48:39;;;;;;;13.07;6.32;;;;;;;;;;5490649;26;20017;-54
2024/04/15 13:51:06;;;;;;;17.48;7.20;;;;;;;;;;5490394;26;20066;-54
2024/04/15 13:53:35;;;;;;;10.88;6.03;;;;;;;;;;5490432;26;20676;-54
2024/04/15 13:56:01;;;;;;;12.88;4.63;;;;;;;;;;5490777;26;20393;-53
2024/04/15 13:58:27;;;;;;;11.00;4.90;;;;;;;;;;5519249;26;20350;-52
2024/04/15 14:00:55;;;;;;;8.10;4.38;;;;;;;;;;5519275;26;20005;-53
2024/04/15 14:03:22;;;;;;;7.95;3.60;;;;;;;;;;5519358;26;20020;-56
2024/04/15 14:05:51;;;;;;;9.70;3.33;;;;;;;;;;5488542;26;20004;-57
2024/04/15 14:08:19;;;;;;;8.82;3.75;;;;;;;;;;5490371;26;20005;-57
2024/04/15 14:10:45;;;;;;;9.27;3.70;;;;;;;;;;5489891;26;20006;-57
2024/04/15 14:13:12;;;;;;;10.90;4.28;;;;;;;;;;5519376;26;20004;-56
2024/04/15 14:15:38;;;;;;;7.90;4.30;;;;;;;;;;5490552;26;19994;-57
2024/04/15 14:18:05;;;;;;;12.85;6.15;;;;;;;;;;5519537;26;20005;-58
2024/04/15 14:20:31;;;;;;;11.80;5.45;;;;;;;;;;5490219;26;20002;-57
2024/04/15 14:23:00;;;;;;;13.95;5.07;;;;;;;;;;5519525;26;19998;-58
2024/04/15 14:25:26;;;;;;;11.07;5.03;;;;;;;;;;5489939;26;19997;-56